sensor_id;sensor_type;location;lat;lon;timestamp;P1;durP1;ratioP1;P2;durP2;ratioP2
55539;SDS011;41384;51.418;7.286;2023-08-31T00:00:50;2.90;;;1.70;;
55539;SDS011;41384;51.418;7.286;2023-08-31T00:03:18;2.90;;;1.20;;
55539;SDS011;41384;51.418;7.286;2023-08-31T00:05:44;2.35;;;1.77;;
55539;SDS011;41384;51.418;7.286;2023-08-31T00:08:10;2.90;;;1.50;;
55539;SDS011;41384;51.418;7.286;2023-08-31T00:10:36;2.60;;;1.30;;
55539;SDS011;41384;51.418;7.286;2023-08-31T00:13:02;3.13;;;1.40;;
55539;SDS011;41384;51.418;7.286;2023-08-31T00:15:28;4.88;;;1.65;;
55539;SDS011;41384;51.418;7.286;2023-08-31T00:17:54;3.00;;;1.70;;
55539;SDS011;41384;51.418;7.286;2023-08-31T00:20:19;2.00;;;1.30;;
55539;SDS011;41384;51.418;7.286;2023-08-31T00:22:45;2.40;;;1.05;;
55539;SDS011;41384;51.418;7.286;2023-08-31T00:25:10;4.22;;;1.60;;
55539;SDS011;41384;51.418;7.286;2023-08-31T00:27:35;2.78;;;1.38;;
55539;SDS011;41384;51.418;7.286;2023-08-31T00:30:06;2.55;;;1.45;;
55539;SDS011;41384;51.418;7.286;2023-08-31T00:32:36;3.78;;;1.33;;
55539;SDS011;41384;51.418;7.286;2023-08-31T00:35:01;2.88;;;1.80;;
55539;SDS011;41384;51.418;7.286;2023-08-31T00:37:28;3.58;;;1.92;;
55539;SDS011;41384;51.418;7.286;2023-08-31T00:39:54;3.42;;;1.60;;
55539;SDS011;41384;51.418;7.286;2023-08-31T00:42:19;3.40;;;1.58;;
55539;SDS011;41384;51.418;7.286;2023-08-31T00:44:45;3.05;;;1.27;;
55539;SDS011;41384;51.418;7.286;2023-08-31T00:47:12;4.30;;;1.35;;
55539;SDS011;41384;51.418;7.286;2023-08-31T00:49:38;3.00;;;1.17;;
55539;SDS011;41384;51.418;7.286;2023-08-31T00:52:05;3.33;;;1.55;;
55539;SDS011;41384;51.418;7.286;2023-08-31T00:54:31;4.07;;;1.50;;
55539;SDS011;41384;51.418;7.286;2023-08-31T00:56:57;2.88;;;1.25;;
55539;SDS011;41384;51.418;7.286;2023-08-31T00:59:23;2.67;;;1.40;;
55539;SDS011;41384;51.418;7.286;2023-08-31T01:04:41;2.05;;;1.58;;
55539;SDS011;41384;51.418;7.286;2023-08-31T01:07:31;6.85;;;1.38;;
55539;SDS011;41384;51.418;7.286;2023-08-31T01:10:13;3.67;;;1.85;;
55539;SDS011;41384;51.418;7.286;2023-08-31T01:13:02;2.38;;;1.50;;
55539;SDS011;41384;51.418;7.286;2023-08-31T01:15:36;4.78;;;1.98;;
55539;SDS011;41384;51.418;7.286;2023-08-31T01:18:02;1.70;;;1.30;;
55539;SDS011;41384;51.418;7.286;2023-08-31T01:23:20;5.90;;;1.65;;
55539;SDS011;41384;51.418;7.286;2023-08-31T01:25:51;4.00;;;1.63;;
55539;SDS011;41384;51.418;7.286;2023-08-31T01:28:17;2.88;;;1.85;;
55539;SDS011;41384;51.418;7.286;2023-08-31T01:30:42;3.95;;;2.03;;
55539;SDS011;41384;51.418;7.286;2023-08-31T01:33:08;3.83;;;1.70;;
55539;SDS011;41384;51.418;7.286;2023-08-31T01:35:34;4.20;;;1.80;;
55539;SDS011;41384;51.418;7.286;2023-08-31T01:38:08;5.25;;;1.52;;
55539;SDS011;41384;51.418;7.286;2023-08-31T01:40:44;3.28;;;1.98;;
55539;SDS011;41384;51.418;7.286;2023-08-31T01:43:14;3.15;;;2.10;;
55539;SDS011;41384;51.418;7.286;2023-08-31T01:45:42;3.50;;;1.92;;
55539;SDS011;41384;51.418;7.286;2023-08-31T01:48:10;3.70;;;1.88;;
55539;SDS011;41384;51.418;7.286;2023-08-31T01:50:35;4.45;;;2.85;;
55539;SDS011;41384;51.418;7.286;2023-08-31T01:53:00;4.32;;;1.95;;
55539;SDS011;41384;51.418;7.286;2023-08-31T01:55:25;4.80;;;2.25;;
55539;SDS011;41384;51.418;7.286;2023-08-31T01:57:51;8.02;;;1.65;;
55539;SDS011;41384;51.418;7.286;2023-08-31T02:00:16;3.20;;;1.98;;
55539;SDS011;41384;51.418;7.286;2023-08-31T02:02:43;4.93;;;1.95;;
55539;SDS011;41384;51.418;7.286;2023-08-31T02:05:09;2.90;;;2.05;;
55539;SDS011;41384;51.418;7.286;2023-08-31T02:07:34;3.38;;;2.00;;
55539;SDS011;41384;51.418;7.286;2023-08-31T02:10:00;3.08;;;1.50;;
55539;SDS011;41384;51.418;7.286;2023-08-31T02:12:25;3.97;;;1.70;;
55539;SDS011;41384;51.418;7.286;2023-08-31T02:14:50;2.70;;;1.70;;
55539;SDS011;41384;51.418;7.286;2023-08-31T02:17:16;6.80;;;1.80;;
55539;SDS011;41384;51.418;7.286;2023-08-31T02:19:41;6.78;;;1.95;;
55539;SDS011;41384;51.418;7.286;2023-08-31T02:22:06;5.13;;;1.40;;
55539;SDS011;41384;51.418;7.286;2023-08-31T02:24:31;3.10;;;2.13;;
55539;SDS011;41384;51.418;7.286;2023-08-31T02:26:57;2.72;;;1.17;;
55539;SDS011;41384;51.418;7.286;2023-08-31T02:29:22;9.88;;;1.98;;
55539;SDS011;41384;51.418;7.286;2023-08-31T02:31:47;3.40;;;1.40;;
55539;SDS011;41384;51.418;7.286;2023-08-31T02:34:13;4.65;;;2.20;;
55539;SDS011;41384;51.418;7.286;2023-08-31T02:36:38;4.13;;;2.10;;
55539;SDS011;41384;51.418;7.286;2023-08-31T02:39:04;4.65;;;1.85;;
55539;SDS011;41384;51.418;7.286;2023-08-31T02:41:29;2.90;;;2.00;;
55539;SDS011;41384;51.418;7.286;2023-08-31T02:43:54;5.65;;;2.65;;
55539;SDS011;41384;51.418;7.286;2023-08-31T02:46:20;4.10;;;2.70;;
55539;SDS011;41384;51.418;7.286;2023-08-31T02:48:46;3.55;;;2.22;;
55539;SDS011;41384;51.418;7.286;2023-08-31T02:51:11;3.55;;;2.05;;
55539;SDS011;41384;51.418;7.286;2023-08-31T02:53:36;3.97;;;1.95;;
55539;SDS011;41384;51.418;7.286;2023-08-31T02:56:02;3.70;;;2.58;;
55539;SDS011;41384;51.418;7.286;2023-08-31T02:58:27;3.72;;;2.35;;
55539;SDS011;41384;51.418;7.286;2023-08-31T03:00:52;3.72;;;1.98;;
55539;SDS011;41384;51.418;7.286;2023-08-31T03:03:18;3.85;;;2.05;;
55539;SDS011;41384;51.418;7.286;2023-08-31T03:05:44;7.75;;;1.90;;
55539;SDS011;41384;51.418;7.286;2023-08-31T03:08:10;3.33;;;2.00;;
55539;SDS011;41384;51.418;7.286;2023-08-31T03:10:35;5.20;;;2.15;;
55539;SDS011;41384;51.418;7.286;2023-08-31T03:13:01;4.10;;;1.85;;
55539;SDS011;41384;51.418;7.286;2023-08-31T03:15:27;3.20;;;1.80;;
55539;SDS011;41384;51.418;7.286;2023-08-31T03:17:52;5.45;;;2.22;;
55539;SDS011;41384;51.418;7.286;2023-08-31T03:20:17;3.58;;;2.33;;
55539;SDS011;41384;51.418;7.286;2023-08-31T03:22:43;4.85;;;2.38;;
55539;SDS011;41384;51.418;7.286;2023-08-31T03:25:08;6.57;;;2.60;;
55539;SDS011;41384;51.418;7.286;2023-08-31T03:27:33;6.47;;;2.97;;
55539;SDS011;41384;51.418;7.286;2023-08-31T03:29:58;5.50;;;2.65;;
55539;SDS011;41384;51.418;7.286;2023-08-31T03:32:24;6.95;;;2.85;;
55539;SDS011;41384;51.418;7.286;2023-08-31T03:34:49;4.47;;;2.72;;
55539;SDS011;41384;51.418;7.286;2023-08-31T03:37:15;5.60;;;2.72;;
55539;SDS011;41384;51.418;7.286;2023-08-31T03:39:40;5.03;;;2.50;;
55539;SDS011;41384;51.418;7.286;2023-08-31T03:42:09;5.47;;;3.05;;
55539;SDS011;41384;51.418;7.286;2023-08-31T03:44:35;3.50;;;2.47;;
55539;SDS011;41384;51.418;7.286;2023-08-31T03:47:02;3.85;;;2.53;;
55539;SDS011;41384;51.418;7.286;2023-08-31T03:49:27;8.40;;;3.15;;
55539;SDS011;41384;51.418;7.286;2023-08-31T03:51:52;7.13;;;2.83;;
55539;SDS011;41384;51.418;7.286;2023-08-31T03:54:18;4.95;;;3.20;;
55539;SDS011;41384;51.418;7.286;2023-08-31T03:56:44;7.80;;;3.10;;
55539;SDS011;41384;51.418;7.286;2023-08-31T03:59:10;6.47;;;2.88;;
55539;SDS011;41384;51.418;7.286;2023-08-31T04:01:35;4.90;;;3.05;;
55539;SDS011;41384;51.418;7.286;2023-08-31T04:04:00;3.50;;;2.25;;
55539;SDS011;41384;51.418;7.286;2023-08-31T04:06:25;5.93;;;2.60;;
55539;SDS011;41384;51.418;7.286;2023-08-31T04:08:52;4.95;;;2.65;;
55539;SDS011;41384;51.418;7.286;2023-08-31T04:11:17;4.50;;;2.70;;
55539;SDS011;41384;51.418;7.286;2023-08-31T04:13:43;6.60;;;2.95;;
55539;SDS011;41384;51.418;7.286;2023-08-31T04:16:08;5.40;;;3.17;;
55539;SDS011;41384;51.418;7.286;2023-08-31T04:18:34;6.85;;;3.45;;
55539;SDS011;41384;51.418;7.286;2023-08-31T04:20:59;5.05;;;2.90;;
55539;SDS011;41384;51.418;7.286;2023-08-31T04:23:28;6.13;;;2.83;;
55539;SDS011;41384;51.418;7.286;2023-08-31T04:25:54;5.60;;;3.78;;
55539;SDS011;41384;51.418;7.286;2023-08-31T04:28:19;5.88;;;3.35;;
55539;SDS011;41384;51.418;7.286;2023-08-31T04:30:44;4.72;;;3.38;;
55539;SDS011;41384;51.418;7.286;2023-08-31T04:33:10;6.40;;;3.92;;
55539;SDS011;41384;51.418;7.286;2023-08-31T04:35:35;7.85;;;4.40;;
55539;SDS011;41384;51.418;7.286;2023-08-31T04:38:00;7.13;;;3.50;;
55539;SDS011;41384;51.418;7.286;2023-08-31T04:40:27;6.78;;;4.13;;
55539;SDS011;41384;51.418;7.286;2023-08-31T04:42:53;9.98;;;3.83;;
55539;SDS011;41384;51.418;7.286;2023-08-31T04:45:19;8.80;;;3.97;;
55539;SDS011;41384;51.418;7.286;2023-08-31T04:47:44;9.32;;;4.28;;
55539;SDS011;41384;51.418;7.286;2023-08-31T04:50:10;7.22;;;4.30;;
55539;SDS011;41384;51.418;7.286;2023-08-31T04:52:35;9.75;;;4.60;;
55539;SDS011;41384;51.418;7.286;2023-08-31T04:55:05;7.90;;;3.88;;
55539;SDS011;41384;51.418;7.286;2023-08-31T04:57:34;6.97;;;3.33;;
55539;SDS011;41384;51.418;7.286;2023-08-31T04:59:59;9.07;;;3.72;;
55539;SDS011;41384;51.418;7.286;2023-08-31T05:02:25;7.40;;;3.72;;
55539;SDS011;41384;51.418;7.286;2023-08-31T05:04:50;5.05;;;3.38;;
55539;SDS011;41384;51.418;7.286;2023-08-31T05:07:16;7.85;;;4.18;;
55539;SDS011;41384;51.418;7.286;2023-08-31T05:09:41;6.40;;;4.05;;
55539;SDS011;41384;51.418;7.286;2023-08-31T05:12:07;6.07;;;3.63;;
55539;SDS011;41384;51.418;7.286;2023-08-31T05:14:32;7.72;;;3.80;;
55539;SDS011;41384;51.418;7.286;2023-08-31T05:17:02;11.43;;;4.05;;
55539;SDS011;41384;51.418;7.286;2023-08-31T05:19:28;7.18;;;3.50;;
55539;SDS011;41384;51.418;7.286;2023-08-31T05:21:53;6.10;;;4.40;;
55539;SDS011;41384;51.418;7.286;2023-08-31T05:24:19;7.07;;;3.90;;
55539;SDS011;41384;51.418;7.286;2023-08-31T05:26:44;7.20;;;3.90;;
55539;SDS011;41384;51.418;7.286;2023-08-31T05:29:09;6.18;;;4.13;;
55539;SDS011;41384;51.418;7.286;2023-08-31T05:31:35;6.88;;;4.22;;
55539;SDS011;41384;51.418;7.286;2023-08-31T05:34:01;10.07;;;5.20;;
55539;SDS011;41384;51.418;7.286;2023-08-31T05:36:26;8.82;;;4.00;;
55539;SDS011;41384;51.418;7.286;2023-08-31T05:38:51;6.30;;;4.20;;
55539;SDS011;41384;51.418;7.286;2023-08-31T05:41:17;11.27;;;5.40;;
55539;SDS011;41384;51.418;7.286;2023-08-31T05:43:42;8.77;;;5.60;;
55539;SDS011;41384;51.418;7.286;2023-08-31T05:46:08;10.70;;;5.07;;
55539;SDS011;41384;51.418;7.286;2023-08-31T05:48:34;8.38;;;4.45;;
55539;SDS011;41384;51.418;7.286;2023-08-31T05:51:00;9.90;;;4.88;;
55539;SDS011;41384;51.418;7.286;2023-08-31T05:53:26;8.55;;;5.30;;
55539;SDS011;41384;51.418;7.286;2023-08-31T05:55:52;7.93;;;4.45;;
55539;SDS011;41384;51.418;7.286;2023-08-31T05:58:19;8.20;;;5.13;;
55539;SDS011;41384;51.418;7.286;2023-08-31T06:00:44;9.48;;;5.22;;
55539;SDS011;41384;51.418;7.286;2023-08-31T06:03:10;8.77;;;5.47;;
55539;SDS011;41384;51.418;7.286;2023-08-31T06:05:36;9.63;;;5.43;;
55539;SDS011;41384;51.418;7.286;2023-08-31T06:08:01;9.13;;;4.85;;
55539;SDS011;41384;51.418;7.286;2023-08-31T06:10:26;10.02;;;5.20;;
55539;SDS011;41384;51.418;7.286;2023-08-31T06:12:51;5.70;;;4.65;;
55539;SDS011;41384;51.418;7.286;2023-08-31T06:15:17;8.82;;;3.97;;
55539;SDS011;41384;51.418;7.286;2023-08-31T06:17:43;8.30;;;3.83;;
55539;SDS011;41384;51.418;7.286;2023-08-31T06:20:09;9.07;;;4.10;;
55539;SDS011;41384;51.418;7.286;2023-08-31T06:22:35;7.93;;;4.10;;
55539;SDS011;41384;51.418;7.286;2023-08-31T06:25:00;6.65;;;4.30;;
55539;SDS011;41384;51.418;7.286;2023-08-31T06:27:25;6.95;;;3.88;;
55539;SDS011;41384;51.418;7.286;2023-08-31T06:29:51;5.70;;;3.78;;
55539;SDS011;41384;51.418;7.286;2023-08-31T06:32:17;4.68;;;3.40;;
55539;SDS011;41384;51.418;7.286;2023-08-31T06:34:43;4.95;;;3.30;;
55539;SDS011;41384;51.418;7.286;2023-08-31T06:37:08;5.88;;;3.65;;
55539;SDS011;41384;51.418;7.286;2023-08-31T06:39:33;5.90;;;3.90;;
55539;SDS011;41384;51.418;7.286;2023-08-31T06:41:59;5.35;;;3.58;;
55539;SDS011;41384;51.418;7.286;2023-08-31T06:44:24;6.78;;;3.28;;
55539;SDS011;41384;51.418;7.286;2023-08-31T06:46:50;4.82;;;3.10;;
55539;SDS011;41384;51.418;7.286;2023-08-31T06:49:15;5.13;;;3.00;;
55539;SDS011;41384;51.418;7.286;2023-08-31T06:51:40;4.88;;;3.47;;
55539;SDS011;41384;51.418;7.286;2023-08-31T06:54:06;5.22;;;3.03;;
55539;SDS011;41384;51.418;7.286;2023-08-31T06:56:35;5.53;;;3.60;;
55539;SDS011;41384;51.418;7.286;2023-08-31T06:59:01;6.93;;;3.47;;
55539;SDS011;41384;51.418;7.286;2023-08-31T07:01:27;7.53;;;3.47;;
55539;SDS011;41384;51.418;7.286;2023-08-31T07:03:53;5.32;;;3.38;;
55539;SDS011;41384;51.418;7.286;2023-08-31T07:06:19;4.05;;;2.70;;
55539;SDS011;41384;51.418;7.286;2023-08-31T07:08:44;5.40;;;2.95;;
55539;SDS011;41384;51.418;7.286;2023-08-31T07:11:13;5.38;;;2.70;;
55539;SDS011;41384;51.418;7.286;2023-08-31T07:13:39;4.05;;;2.92;;
55539;SDS011;41384;51.418;7.286;2023-08-31T07:16:05;5.68;;;3.42;;
55539;SDS011;41384;51.418;7.286;2023-08-31T07:18:30;6.82;;;3.22;;
55539;SDS011;41384;51.418;7.286;2023-08-31T07:20:56;3.20;;;2.55;;
55539;SDS011;41384;51.418;7.286;2023-08-31T07:23:22;4.97;;;2.80;;
55539;SDS011;41384;51.418;7.286;2023-08-31T07:25:47;4.68;;;2.50;;
55539;SDS011;41384;51.418;7.286;2023-08-31T07:28:12;4.53;;;2.10;;
55539;SDS011;41384;51.418;7.286;2023-08-31T07:30:37;4.55;;;2.67;;
55539;SDS011;41384;51.418;7.286;2023-08-31T07:33:03;5.03;;;2.40;;
55539;SDS011;41384;51.418;7.286;2023-08-31T07:35:29;7.53;;;2.88;;
55539;SDS011;41384;51.418;7.286;2023-08-31T07:37:55;3.67;;;2.53;;
55539;SDS011;41384;51.418;7.286;2023-08-31T07:40:20;4.40;;;2.42;;
55539;SDS011;41384;51.418;7.286;2023-08-31T07:42:45;6.22;;;2.53;;
55539;SDS011;41384;51.418;7.286;2023-08-31T07:45:11;4.07;;;2.42;;
55539;SDS011;41384;51.418;7.286;2023-08-31T07:47:36;4.13;;;1.95;;
55539;SDS011;41384;51.418;7.286;2023-08-31T07:50:01;3.45;;;2.22;;
55539;SDS011;41384;51.418;7.286;2023-08-31T07:52:27;6.93;;;2.63;;
55539;SDS011;41384;51.418;7.286;2023-08-31T07:54:52;5.55;;;2.25;;
55539;SDS011;41384;51.418;7.286;2023-08-31T07:57:18;2.92;;;2.00;;
55539;SDS011;41384;51.418;7.286;2023-08-31T07:59:44;3.13;;;2.38;;
55539;SDS011;41384;51.418;7.286;2023-08-31T08:02:09;3.17;;;2.08;;
55539;SDS011;41384;51.418;7.286;2023-08-31T08:04:34;4.68;;;2.20;;
55539;SDS011;41384;51.418;7.286;2023-08-31T08:07:00;3.67;;;1.80;;
55539;SDS011;41384;51.418;7.286;2023-08-31T08:09:25;2.60;;;1.73;;
55539;SDS011;41384;51.418;7.286;2023-08-31T08:11:50;2.70;;;1.88;;
55539;SDS011;41384;51.418;7.286;2023-08-31T08:14:16;3.67;;;1.60;;
55539;SDS011;41384;51.418;7.286;2023-08-31T08:16:41;5.40;;;1.95;;
55539;SDS011;41384;51.418;7.286;2023-08-31T08:19:07;2.85;;;1.88;;
55539;SDS011;41384;51.418;7.286;2023-08-31T08:21:32;3.80;;;1.80;;
55539;SDS011;41384;51.418;7.286;2023-08-31T08:23:58;2.53;;;1.58;;
55539;SDS011;41384;51.418;7.286;2023-08-31T08:26:23;3.20;;;1.38;;
55539;SDS011;41384;51.418;7.286;2023-08-31T08:28:49;4.60;;;1.70;;
55539;SDS011;41384;51.418;7.286;2023-08-31T08:31:15;2.55;;;1.60;;
55539;SDS011;41384;51.418;7.286;2023-08-31T08:33:40;4.50;;;1.67;;
55539;SDS011;41384;51.418;7.286;2023-08-31T08:36:05;2.35;;;1.45;;
55539;SDS011;41384;51.418;7.286;2023-08-31T08:38:31;4.45;;;1.60;;
55539;SDS011;41384;51.418;7.286;2023-08-31T08:40:56;2.90;;;1.50;;
55539;SDS011;41384;51.418;7.286;2023-08-31T08:43:24;2.08;;;1.50;;
55539;SDS011;41384;51.418;7.286;2023-08-31T08:45:50;4.10;;;1.38;;
55539;SDS011;41384;51.418;7.286;2023-08-31T08:48:16;2.72;;;1.10;;
55539;SDS011;41384;51.418;7.286;2023-08-31T08:50:43;2.53;;;1.55;;
55539;SDS011;41384;51.418;7.286;2023-08-31T08:53:09;4.13;;;2.05;;
55539;SDS011;41384;51.418;7.286;2023-08-31T08:55:36;9.30;;;1.63;;
55539;SDS011;41384;51.418;7.286;2023-08-31T08:58:02;4.03;;;1.90;;
55539;SDS011;41384;51.418;7.286;2023-08-31T09:00:28;2.20;;;1.55;;
55539;SDS011;41384;51.418;7.286;2023-08-31T09:02:55;3.22;;;1.70;;
55539;SDS011;41384;51.418;7.286;2023-08-31T09:05:21;4.80;;;1.50;;
55539;SDS011;41384;51.418;7.286;2023-08-31T09:08:00;3.88;;;1.80;;
55539;SDS011;41384;51.418;7.286;2023-08-31T09:10:37;4.90;;;1.48;;
55539;SDS011;41384;51.418;7.286;2023-08-31T09:13:05;3.17;;;1.38;;
55539;SDS011;41384;51.418;7.286;2023-08-31T09:15:42;3.08;;;1.17;;
55539;SDS011;41384;51.418;7.286;2023-08-31T09:18:15;7.18;;;1.50;;
55539;SDS011;41384;51.418;7.286;2023-08-31T09:20:55;4.68;;;2.00;;
55539;SDS011;41384;51.418;7.286;2023-08-31T09:23:24;4.47;;;1.65;;
55539;SDS011;41384;51.418;7.286;2023-08-31T09:25:54;3.50;;;1.67;;
55539;SDS011;41384;51.418;7.286;2023-08-31T09:28:21;6.97;;;1.63;;
55539;SDS011;41384;51.418;7.286;2023-08-31T09:31:15;4.38;;;1.00;;
55539;SDS011;41384;51.418;7.286;2023-08-31T09:33:39;5.60;;;2.30;;
55539;SDS011;41384;51.418;7.286;2023-08-31T09:36:15;3.65;;;1.65;;
55539;SDS011;41384;51.418;7.286;2023-08-31T09:38:41;5.25;;;1.38;;
55539;SDS011;41384;51.418;7.286;2023-08-31T09:41:08;6.18;;;1.58;;
55539;SDS011;41384;51.418;7.286;2023-08-31T09:43:33;3.63;;;1.17;;
55539;SDS011;41384;51.418;7.286;2023-08-31T09:45:59;2.03;;;1.27;;
55539;SDS011;41384;51.418;7.286;2023-08-31T09:48:27;5.93;;;1.40;;
55539;SDS011;41384;51.418;7.286;2023-08-31T09:50:52;3.22;;;1.27;;
55539;SDS011;41384;51.418;7.286;2023-08-31T09:53:20;2.05;;;1.30;;
55539;SDS011;41384;51.418;7.286;2023-08-31T09:55:46;5.20;;;1.67;;
55539;SDS011;41384;51.418;7.286;2023-08-31T09:58:17;2.45;;;1.20;;
55539;SDS011;41384;51.418;7.286;2023-08-31T10:00:44;2.42;;;1.10;;
55539;SDS011;41384;51.418;7.286;2023-08-31T10:03:11;4.82;;;1.17;;
55539;SDS011;41384;51.418;7.286;2023-08-31T10:05:40;2.78;;;1.13;;
55539;SDS011;41384;51.418;7.286;2023-08-31T10:08:06;2.40;;;1.27;;
55539;SDS011;41384;51.418;7.286;2023-08-31T10:10:32;3.33;;;1.10;;
55539;SDS011;41384;51.418;7.286;2023-08-31T10:12:58;2.10;;;1.20;;
55539;SDS011;41384;51.418;7.286;2023-08-31T10:15:24;1.83;;;0.82;;
55539;SDS011;41384;51.418;7.286;2023-08-31T10:17:56;2.25;;;1.20;;
55539;SDS011;41384;51.418;7.286;2023-08-31T10:20:22;3.40;;;1.23;;
55539;SDS011;41384;51.418;7.286;2023-08-31T10:22:48;5.65;;;1.08;;
55539;SDS011;41384;51.418;7.286;2023-08-31T10:25:13;1.35;;;1.10;;
55539;SDS011;41384;51.418;7.286;2023-08-31T10:27:39;2.63;;;1.00;;
55539;SDS011;41384;51.418;7.286;2023-08-31T10:38:14;1.80;;;0.90;;
55539;SDS011;41384;51.418;7.286;2023-08-31T10:41:02;1.70;;;0.90;;
55539;SDS011;41384;51.418;7.286;2023-08-31T10:51:34;3.75;;;1.15;;
55539;SDS011;41384;51.418;7.286;2023-08-31T10:54:19;4.05;;;1.20;;
55539;SDS011;41384;51.418;7.286;2023-08-31T10:59:25;3.05;;;0.90;;
55539;SDS011;41384;51.418;7.286;2023-08-31T11:04:21;3.78;;;0.90;;
55539;SDS011;41384;51.418;7.286;2023-08-31T11:06:47;1.35;;;0.82;;
55539;SDS011;41384;51.418;7.286;2023-08-31T11:09:17;1.88;;;1.20;;
55539;SDS011;41384;51.418;7.286;2023-08-31T11:11:44;2.40;;;1.08;;
55539;SDS011;41384;51.418;7.286;2023-08-31T11:14:10;2.53;;;1.20;;
55539;SDS011;41384;51.418;7.286;2023-08-31T11:16:37;2.85;;;1.40;;
55539;SDS011;41384;51.418;7.286;2023-08-31T11:19:03;3.95;;;1.20;;
55539;SDS011;41384;51.418;7.286;2023-08-31T11:21:29;2.58;;;1.17;;
55539;SDS011;41384;51.418;7.286;2023-08-31T11:23:56;2.08;;;1.27;;
55539;SDS011;41384;51.418;7.286;2023-08-31T11:26:24;3.05;;;1.17;;
55539;SDS011;41384;51.418;7.286;2023-08-31T11:28:51;3.30;;;1.10;;
55539;SDS011;41384;51.418;7.286;2023-08-31T11:31:25;3.67;;;1.10;;
55539;SDS011;41384;51.418;7.286;2023-08-31T11:33:51;2.15;;;0.95;;
55539;SDS011;41384;51.418;7.286;2023-08-31T11:36:16;6.03;;;1.38;;
55539;SDS011;41384;51.418;7.286;2023-08-31T11:38:43;2.03;;;1.08;;
55539;SDS011;41384;51.418;7.286;2023-08-31T11:41:09;3.17;;;1.23;;
55539;SDS011;41384;51.418;7.286;2023-08-31T11:43:34;6.30;;;1.30;;
55539;SDS011;41384;51.418;7.286;2023-08-31T11:46:00;7.22;;;1.60;;
55539;SDS011;41384;51.418;7.286;2023-08-31T11:48:26;2.03;;;0.98;;
55539;SDS011;41384;51.418;7.286;2023-08-31T11:50:52;3.20;;;1.35;;
55539;SDS011;41384;51.418;7.286;2023-08-31T11:53:18;3.67;;;1.20;;
55539;SDS011;41384;51.418;7.286;2023-08-31T11:55:53;9.38;;;1.80;;
55539;SDS011;41384;51.418;7.286;2023-08-31T11:58:21;5.90;;;0.90;;
55539;SDS011;41384;51.418;7.286;2023-08-31T12:00:58;2.55;;;1.10;;
55539;SDS011;41384;51.418;7.286;2023-08-31T12:03:24;2.67;;;1.40;;
55539;SDS011;41384;51.418;7.286;2023-08-31T12:05:51;3.75;;;1.00;;
55539;SDS011;41384;51.418;7.286;2023-08-31T12:08:26;3.10;;;1.33;;
55539;SDS011;41384;51.418;7.286;2023-08-31T12:10:52;2.13;;;1.05;;
55539;SDS011;41384;51.418;7.286;2023-08-31T12:13:18;4.30;;;0.80;;
55539;SDS011;41384;51.418;7.286;2023-08-31T12:15:44;2.30;;;1.10;;
55539;SDS011;41384;51.418;7.286;2023-08-31T12:18:10;2.00;;;1.00;;
55539;SDS011;41384;51.418;7.286;2023-08-31T12:20:45;2.05;;;0.90;;
55539;SDS011;41384;51.418;7.286;2023-08-31T12:23:16;2.53;;;1.23;;
55539;SDS011;41384;51.418;7.286;2023-08-31T12:25:45;4.32;;;1.25;;
55539;SDS011;41384;51.418;7.286;2023-08-31T12:28:17;3.88;;;1.50;;
55539;SDS011;41384;51.418;7.286;2023-08-31T12:30:47;2.22;;;1.45;;
55539;SDS011;41384;51.418;7.286;2023-08-31T12:33:14;2.67;;;0.90;;
55539;SDS011;41384;51.418;7.286;2023-08-31T12:35:39;2.13;;;1.05;;
55539;SDS011;41384;51.418;7.286;2023-08-31T12:38:05;1.35;;;0.85;;
55539;SDS011;41384;51.418;7.286;2023-08-31T12:40:30;2.55;;;1.27;;
55539;SDS011;41384;51.418;7.286;2023-08-31T12:42:55;4.63;;;1.30;;
55539;SDS011;41384;51.418;7.286;2023-08-31T12:45:21;2.80;;;1.20;;
55539;SDS011;41384;51.418;7.286;2023-08-31T12:47:46;3.17;;;1.00;;
55539;SDS011;41384;51.418;7.286;2023-08-31T12:50:12;3.13;;;1.20;;
55539;SDS011;41384;51.418;7.286;2023-08-31T12:52:38;4.07;;;1.30;;
55539;SDS011;41384;51.418;7.286;2023-08-31T12:55:09;1.48;;;0.98;;
55539;SDS011;41384;51.418;7.286;2023-08-31T12:57:41;2.63;;;1.10;;
55539;SDS011;41384;51.418;7.286;2023-08-31T13:00:07;6.53;;;1.15;;
55539;SDS011;41384;51.418;7.286;2023-08-31T13:02:45;2.17;;;0.80;;
55539;SDS011;41384;51.418;7.286;2023-08-31T13:05:10;1.70;;;0.70;;
55539;SDS011;41384;51.418;7.286;2023-08-31T13:07:36;1.23;;;0.90;;
55539;SDS011;41384;51.418;7.286;2023-08-31T13:10:02;4.68;;;0.77;;
55539;SDS011;41384;51.418;7.286;2023-08-31T13:12:29;1.38;;;0.82;;
55539;SDS011;41384;51.418;7.286;2023-08-31T13:14:55;2.63;;;1.00;;
55539;SDS011;41384;51.418;7.286;2023-08-31T13:17:20;4.00;;;0.90;;
55539;SDS011;41384;51.418;7.286;2023-08-31T13:19:46;3.42;;;0.85;;
55539;SDS011;41384;51.418;7.286;2023-08-31T13:22:11;2.53;;;1.23;;
55539;SDS011;41384;51.418;7.286;2023-08-31T13:24:40;4.47;;;1.08;;
55539;SDS011;41384;51.418;7.286;2023-08-31T13:27:05;3.90;;;1.30;;
55539;SDS011;41384;51.418;7.286;2023-08-31T13:29:31;2.30;;;1.20;;
55539;SDS011;41384;51.418;7.286;2023-08-31T13:31:57;3.17;;;1.30;;
55539;SDS011;41384;51.418;7.286;2023-08-31T13:34:22;3.72;;;1.13;;
55539;SDS011;41384;51.418;7.286;2023-08-31T13:36:47;3.45;;;1.23;;
55539;SDS011;41384;51.418;7.286;2023-08-31T13:39:13;1.40;;;1.15;;
55539;SDS011;41384;51.418;7.286;2023-08-31T13:41:38;4.95;;;1.13;;
55539;SDS011;41384;51.418;7.286;2023-08-31T13:44:04;1.73;;;1.23;;
55539;SDS011;41384;51.418;7.286;2023-08-31T13:46:29;1.42;;;1.08;;
55539;SDS011;41384;51.418;7.286;2023-08-31T13:48:56;4.85;;;1.25;;
55539;SDS011;41384;51.418;7.286;2023-08-31T13:51:22;2.22;;;1.10;;
55539;SDS011;41384;51.418;7.286;2023-08-31T13:53:47;2.45;;;0.90;;
55539;SDS011;41384;51.418;7.286;2023-08-31T13:56:12;3.88;;;1.23;;
55539;SDS011;41384;51.418;7.286;2023-08-31T13:58:38;4.32;;;1.38;;
55539;SDS011;41384;51.418;7.286;2023-08-31T14:01:03;2.20;;;1.20;;
55539;SDS011;41384;51.418;7.286;2023-08-31T14:03:29;4.80;;;1.30;;
55539;SDS011;41384;51.418;7.286;2023-08-31T14:05:54;3.10;;;1.25;;
55539;SDS011;41384;51.418;7.286;2023-08-31T14:08:20;2.30;;;1.20;;
55539;SDS011;41384;51.418;7.286;2023-08-31T14:10:45;3.25;;;1.15;;
55539;SDS011;41384;51.418;7.286;2023-08-31T14:13:10;1.85;;;1.10;;
55539;SDS011;41384;51.418;7.286;2023-08-31T14:15:36;2.50;;;1.13;;
55539;SDS011;41384;51.418;7.286;2023-08-31T14:18:02;3.15;;;1.30;;
55539;SDS011;41384;51.418;7.286;2023-08-31T14:20:28;3.03;;;1.10;;
55539;SDS011;41384;51.418;7.286;2023-08-31T14:22:54;2.17;;;1.10;;
55539;SDS011;41384;51.418;7.286;2023-08-31T14:25:19;3.88;;;1.40;;
55539;SDS011;41384;51.418;7.286;2023-08-31T14:27:46;1.38;;;1.10;;
55539;SDS011;41384;51.418;7.286;2023-08-31T14:30:12;1.95;;;1.20;;
55539;SDS011;41384;51.418;7.286;2023-08-31T14:32:37;4.30;;;1.15;;
55539;SDS011;41384;51.418;7.286;2023-08-31T14:35:02;1.25;;;1.15;;
55539;SDS011;41384;51.418;7.286;2023-08-31T14:37:29;1.40;;;1.08;;
55539;SDS011;41384;51.418;7.286;2023-08-31T14:39:54;2.53;;;1.25;;
55539;SDS011;41384;51.418;7.286;2023-08-31T14:42:20;3.05;;;1.00;;
55539;SDS011;41384;51.418;7.286;2023-08-31T14:44:46;2.17;;;1.20;;
55539;SDS011;41384;51.418;7.286;2023-08-31T14:47:12;4.85;;;1.13;;
55539;SDS011;41384;51.418;7.286;2023-08-31T14:49:38;2.45;;;1.20;;
55539;SDS011;41384;51.418;7.286;2023-08-31T14:52:05;4.35;;;1.70;;
55539;SDS011;41384;51.418;7.286;2023-08-31T14:54:31;5.13;;;2.63;;
55539;SDS011;41384;51.418;7.286;2023-08-31T14:56:57;5.68;;;2.60;;
55539;SDS011;41384;51.418;7.286;2023-08-31T14:59:23;3.30;;;2.20;;
55539;SDS011;41384;51.418;7.286;2023-08-31T15:01:49;6.63;;;2.33;;
55539;SDS011;41384;51.418;7.286;2023-08-31T15:04:14;4.28;;;2.25;;
55539;SDS011;41384;51.418;7.286;2023-08-31T15:06:40;5.72;;;2.33;;
55539;SDS011;41384;51.418;7.286;2023-08-31T15:09:05;5.97;;;2.35;;
55539;SDS011;41384;51.418;7.286;2023-08-31T15:11:31;6.22;;;2.08;;